All Spectrum Aviation - Van Nuys Airport - KVNY

HOME

Van Nuys Tower Recordings

Condor Squadron KVNY Webcam

Visit our Electronics Store

Condor Squadron Webcam - Van Nuys Airport - KVNY
Picture taken: Thu, 30 Mar 2017 09:37:32 -0700
YouTube Channel!    Latest Timelapse Movie    Full Size Image    Regular Size Image    

2017/03/30 15:51 KVNY 301551Z 00000KT 10SM CLR 18/06 A2994 RMK AO2 SLP132 T01780061

HOME

Van Nuys Tower Recordings

Condor Squadron KVNY Webcam

Visit our Electronics Store